Moodys, Oklahoma
Current Conditions -  °F | °C
As of 12:15 PM on Thursday 23 Oct 2014 (Local Time) from KTQH Reporting Station
Broken Clouds Broken Clouds  
Wind Chill: 13°   Ceiling: 5500
Heat Index: 13°   Visibility: 10mi
Dew Point: 11°   Wind: 0mph
Humidity: 88%   Direction: NA
Pressure: 30.2"   Gusts: NA
Location:  36.03°N, 94.96°W
Report Text: KTQH 231715Z AUTO 00000KT 10SM SCT008 BKN055 13/11 A3020 RMK AO2
Loading
Personal Weather Stations






























Interactive Weather Map
Tropical Storm Tracking
New forecast layout! Learn more

10-Day Weather Forecast

Advertisements
Track Severe Weather on mobile